sensor_id;sensor_type;location;lat;lon;timestamp;P1;durP1;ratioP1;P2;durP2;ratioP2
23624;SDS011;11989;47.872;12.014;2023-02-28T00:01:03;5.57;;;4.43;;
23624;SDS011;11989;47.872;12.014;2023-02-28T00:03:29;5.45;;;3.85;;
23624;SDS011;11989;47.872;12.014;2023-02-28T00:06:00;8.85;;;4.25;;
23624;SDS011;11989;47.872;12.014;2023-02-28T00:08:26;8.27;;;3.95;;
23624;SDS011;11989;47.872;12.014;2023-02-28T00:10:52;5.72;;;3.78;;
23624;SDS011;11989;47.872;12.014;2023-02-28T00:13:18;5.82;;;4.00;;
23624;SDS011;11989;47.872;12.014;2023-02-28T00:15:44;10.25;;;4.35;;
23624;SDS011;11989;47.872;12.014;2023-02-28T00:18:10;6.93;;;4.47;;
23624;SDS011;11989;47.872;12.014;2023-02-28T00:20:37;6.45;;;4.50;;
23624;SDS011;11989;47.872;12.014;2023-02-28T00:23:03;5.72;;;3.95;;
23624;SDS011;11989;47.872;12.014;2023-02-28T00:25:29;5.75;;;3.85;;
23624;SDS011;11989;47.872;12.014;2023-02-28T00:27:55;6.03;;;3.78;;
23624;SDS011;11989;47.872;12.014;2023-02-28T00:30:22;6.80;;;4.05;;
23624;SDS011;11989;47.872;12.014;2023-02-28T00:32:48;7.38;;;4.60;;
23624;SDS011;11989;47.872;12.014;2023-02-28T00:35:15;6.13;;;4.05;;
23624;SDS011;11989;47.872;12.014;2023-02-28T00:37:41;5.93;;;4.05;;
23624;SDS011;11989;47.872;12.014;2023-02-28T00:40:07;7.10;;;4.53;;
23624;SDS011;11989;47.872;12.014;2023-02-28T00:42:34;7.60;;;4.07;;
23624;SDS011;11989;47.872;12.014;2023-02-28T00:45:00;7.63;;;4.60;;
23624;SDS011;11989;47.872;12.014;2023-02-28T00:47:26;7.80;;;4.25;;
23624;SDS011;11989;47.872;12.014;2023-02-28T00:49:52;6.68;;;4.07;;
23624;SDS011;11989;47.872;12.014;2023-02-28T00:52:18;8.57;;;4.50;;
23624;SDS011;11989;47.872;12.014;2023-02-28T00:54:44;7.45;;;4.65;;
23624;SDS011;11989;47.872;12.014;2023-02-28T00:57:10;6.70;;;4.65;;
23624;SDS011;11989;47.872;12.014;2023-02-28T00:59:36;8.00;;;4.38;;
23624;SDS011;11989;47.872;12.014;2023-02-28T01:02:03;6.70;;;4.35;;
23624;SDS011;11989;47.872;12.014;2023-02-28T01:04:29;8.65;;;4.78;;
23624;SDS011;11989;47.872;12.014;2023-02-28T01:06:55;7.13;;;4.50;;
23624;SDS011;11989;47.872;12.014;2023-02-28T01:09:21;8.13;;;5.03;;
23624;SDS011;11989;47.872;12.014;2023-02-28T01:11:47;6.30;;;4.45;;
23624;SDS011;11989;47.872;12.014;2023-02-28T01:14:13;6.97;;;4.07;;
23624;SDS011;11989;47.872;12.014;2023-02-28T01:16:39;5.78;;;3.97;;
23624;SDS011;11989;47.872;12.014;2023-02-28T01:19:06;6.43;;;4.40;;
23624;SDS011;11989;47.872;12.014;2023-02-28T01:21:32;6.13;;;4.13;;
23624;SDS011;11989;47.872;12.014;2023-02-28T01:23:58;6.88;;;4.32;;
23624;SDS011;11989;47.872;12.014;2023-02-28T01:26:24;9.05;;;4.70;;
23624;SDS011;11989;47.872;12.014;2023-02-28T01:28:51;6.80;;;4.38;;
23624;SDS011;11989;47.872;12.014;2023-02-28T01:31:17;7.07;;;4.93;;
23624;SDS011;11989;47.872;12.014;2023-02-28T01:33:44;8.05;;;4.70;;
23624;SDS011;11989;47.872;12.014;2023-02-28T01:36:12;8.93;;;4.78;;
23624;SDS011;11989;47.872;12.014;2023-02-28T01:38:38;7.57;;;4.47;;
23624;SDS011;11989;47.872;12.014;2023-02-28T01:41:05;7.28;;;4.97;;
23624;SDS011;11989;47.872;12.014;2023-02-28T01:46:20;7.35;;;4.60;;
23624;SDS011;11989;47.872;12.014;2023-02-28T01:48:48;8.43;;;4.40;;
23624;SDS011;11989;47.872;12.014;2023-02-28T01:51:20;7.35;;;4.10;;
23624;SDS011;11989;47.872;12.014;2023-02-28T01:53:48;7.32;;;4.35;;
23624;SDS011;11989;47.872;12.014;2023-02-28T01:56:16;8.18;;;4.85;;
23624;SDS011;11989;47.872;12.014;2023-02-28T01:58:48;6.47;;;4.35;;
23624;SDS011;11989;47.872;12.014;2023-02-28T02:01:15;7.75;;;4.80;;
23624;SDS011;11989;47.872;12.014;2023-02-28T02:03:56;8.40;;;4.65;;
23624;SDS011;11989;47.872;12.014;2023-02-28T02:06:27;6.53;;;4.35;;
23624;SDS011;11989;47.872;12.014;2023-02-28T02:08:55;5.47;;;4.10;;
23624;SDS011;11989;47.872;12.014;2023-02-28T02:11:21;6.32;;;4.40;;
23624;SDS011;11989;47.872;12.014;2023-02-28T02:18:54;8.13;;;4.70;;
23624;SDS011;11989;47.872;12.014;2023-02-28T02:26:36;7.70;;;5.15;;
23624;SDS011;11989;47.872;12.014;2023-02-28T02:36:51;8.68;;;5.78;;
23624;SDS011;11989;47.872;12.014;2023-02-28T02:46:47;8.68;;;5.50;;
23624;SDS011;11989;47.872;12.014;2023-02-28T02:49:19;10.07;;;6.20;;
23624;SDS011;11989;47.872;12.014;2023-02-28T02:51:47;8.57;;;5.43;;
23624;SDS011;11989;47.872;12.014;2023-02-28T02:54:18;10.55;;;7.00;;
23624;SDS011;11989;47.872;12.014;2023-02-28T02:56:46;10.30;;;5.95;;
23624;SDS011;11989;47.872;12.014;2023-02-28T02:59:13;11.60;;;6.47;;
23624;SDS011;11989;47.872;12.014;2023-02-28T03:01:46;10.48;;;6.28;;
23624;SDS011;11989;47.872;12.014;2023-02-28T03:04:18;11.43;;;6.32;;
23624;SDS011;11989;47.872;12.014;2023-02-28T03:06:45;8.03;;;5.97;;
23624;SDS011;11989;47.872;12.014;2023-02-28T03:09:11;9.57;;;6.28;;
23624;SDS011;11989;47.872;12.014;2023-02-28T03:11:37;10.30;;;6.57;;
23624;SDS011;11989;47.872;12.014;2023-02-28T03:19:14;10.63;;;6.75;;
23624;SDS011;11989;47.872;12.014;2023-02-28T03:21:48;9.80;;;6.50;;
23624;SDS011;11989;47.872;12.014;2023-02-28T03:26:48;11.98;;;6.90;;
23624;SDS011;11989;47.872;12.014;2023-02-28T03:29:23;11.43;;;6.67;;
23624;SDS011;11989;47.872;12.014;2023-02-28T03:31:53;9.38;;;6.93;;
23624;SDS011;11989;47.872;12.014;2023-02-28T03:34:23;11.70;;;7.70;;
23624;SDS011;11989;47.872;12.014;2023-02-28T03:36:52;10.50;;;6.97;;
23624;SDS011;11989;47.872;12.014;2023-02-28T03:39:40;10.60;;;6.72;;
23624;SDS011;11989;47.872;12.014;2023-02-28T03:42:06;11.02;;;7.70;;
23624;SDS011;11989;47.872;12.014;2023-02-28T03:44:36;12.60;;;6.72;;
23624;SDS011;11989;47.872;12.014;2023-02-28T03:47:06;10.05;;;7.05;;
23624;SDS011;11989;47.872;12.014;2023-02-28T03:49:40;10.75;;;7.47;;
23624;SDS011;11989;47.872;12.014;2023-02-28T03:52:08;9.35;;;6.53;;
23624;SDS011;11989;47.872;12.014;2023-02-28T03:54:36;11.25;;;7.72;;
23624;SDS011;11989;47.872;12.014;2023-02-28T03:59:43;13.02;;;7.85;;
23624;SDS011;11989;47.872;12.014;2023-02-28T04:02:09;12.80;;;8.32;;
23624;SDS011;11989;47.872;12.014;2023-02-28T04:04:35;11.60;;;7.40;;
23624;SDS011;11989;47.872;12.014;2023-02-28T04:07:03;12.75;;;7.85;;
23624;SDS011;11989;47.872;12.014;2023-02-28T04:09:30;13.48;;;7.45;;
23624;SDS011;11989;47.872;12.014;2023-02-28T04:11:56;11.93;;;7.82;;
23624;SDS011;11989;47.872;12.014;2023-02-28T04:14:22;12.68;;;8.35;;
23624;SDS011;11989;47.872;12.014;2023-02-28T04:16:48;13.15;;;7.80;;
23624;SDS011;11989;47.872;12.014;2023-02-28T04:19:15;16.85;;;8.30;;
23624;SDS011;11989;47.872;12.014;2023-02-28T04:21:46;12.90;;;7.07;;
23624;SDS011;11989;47.872;12.014;2023-02-28T04:24:13;14.07;;;7.78;;
23624;SDS011;11989;47.872;12.014;2023-02-28T04:26:40;11.27;;;7.25;;
23624;SDS011;11989;47.872;12.014;2023-02-28T04:29:08;13.35;;;8.25;;
23624;SDS011;11989;47.872;12.014;2023-02-28T04:31:34;13.07;;;7.75;;
23624;SDS011;11989;47.872;12.014;2023-02-28T04:34:01;13.57;;;9.07;;
23624;SDS011;11989;47.872;12.014;2023-02-28T04:36:27;12.68;;;7.57;;
23624;SDS011;11989;47.872;12.014;2023-02-28T04:38:53;15.02;;;9.07;;
23624;SDS011;11989;47.872;12.014;2023-02-28T04:41:20;11.20;;;7.10;;
23624;SDS011;11989;47.872;12.014;2023-02-28T04:43:46;15.80;;;8.63;;
23624;SDS011;11989;47.872;12.014;2023-02-28T04:46:15;9.63;;;6.25;;
23624;SDS011;11989;47.872;12.014;2023-02-28T04:48:42;13.93;;;8.20;;
23624;SDS011;11989;47.872;12.014;2023-02-28T04:51:09;11.05;;;7.50;;
23624;SDS011;11989;47.872;12.014;2023-02-28T04:53:36;10.48;;;6.72;;
23624;SDS011;11989;47.872;12.014;2023-02-28T04:56:03;11.95;;;7.47;;
23624;SDS011;11989;47.872;12.014;2023-02-28T04:58:29;14.60;;;8.50;;
23624;SDS011;11989;47.872;12.014;2023-02-28T05:01:01;13.48;;;7.82;;
23624;SDS011;11989;47.872;12.014;2023-02-28T05:03:27;15.65;;;8.05;;
23624;SDS011;11989;47.872;12.014;2023-02-28T05:05:53;12.38;;;8.80;;
23624;SDS011;11989;47.872;12.014;2023-02-28T05:08:19;14.95;;;9.20;;
23624;SDS011;11989;47.872;12.014;2023-02-28T05:10:45;14.80;;;8.32;;
23624;SDS011;11989;47.872;12.014;2023-02-28T05:13:12;13.13;;;8.73;;
23624;SDS011;11989;47.872;12.014;2023-02-28T05:15:38;14.82;;;7.80;;
23624;SDS011;11989;47.872;12.014;2023-02-28T05:18:04;10.38;;;7.32;;
23624;SDS011;11989;47.872;12.014;2023-02-28T05:20:30;12.43;;;7.85;;
23624;SDS011;11989;47.872;12.014;2023-02-28T05:22:56;11.77;;;7.85;;
23624;SDS011;11989;47.872;12.014;2023-02-28T05:25:23;13.30;;;7.80;;
23624;SDS011;11989;47.872;12.014;2023-02-28T05:27:49;10.93;;;7.35;;
23624;SDS011;11989;47.872;12.014;2023-02-28T05:30:15;20.33;;;11.95;;
23624;SDS011;11989;47.872;12.014;2023-02-28T05:32:42;28.33;;;16.35;;
23624;SDS011;11989;47.872;12.014;2023-02-28T05:35:09;18.35;;;11.98;;
23624;SDS011;11989;47.872;12.014;2023-02-28T05:37:35;19.90;;;12.13;;
23624;SDS011;11989;47.872;12.014;2023-02-28T05:40:02;15.00;;;10.07;;
23624;SDS011;11989;47.872;12.014;2023-02-28T05:42:31;14.63;;;9.15;;
23624;SDS011;11989;47.872;12.014;2023-02-28T05:44:57;14.77;;;9.02;;
23624;SDS011;11989;47.872;12.014;2023-02-28T05:47:24;13.45;;;8.80;;
23624;SDS011;11989;47.872;12.014;2023-02-28T05:49:50;13.18;;;9.18;;
23624;SDS011;11989;47.872;12.014;2023-02-28T05:52:16;15.05;;;8.93;;
23624;SDS011;11989;47.872;12.014;2023-02-28T05:54:42;13.77;;;9.60;;
23624;SDS011;11989;47.872;12.014;2023-02-28T05:57:08;17.20;;;10.48;;
23624;SDS011;11989;47.872;12.014;2023-02-28T05:59:35;17.98;;;8.98;;
23624;SDS011;11989;47.872;12.014;2023-02-28T06:02:04;16.75;;;11.73;;
23624;SDS011;11989;47.872;12.014;2023-02-28T06:04:30;15.70;;;10.05;;
23624;SDS011;11989;47.872;12.014;2023-02-28T06:06:56;16.58;;;9.27;;
23624;SDS011;11989;47.872;12.014;2023-02-28T06:09:22;13.23;;;9.35;;
23624;SDS011;11989;47.872;12.014;2023-02-28T06:11:49;20.92;;;10.77;;
23624;SDS011;11989;47.872;12.014;2023-02-28T06:14:17;15.02;;;10.15;;
23624;SDS011;11989;47.872;12.014;2023-02-28T06:16:43;15.25;;;10.00;;
23624;SDS011;11989;47.872;12.014;2023-02-28T06:19:09;16.48;;;10.35;;
23624;SDS011;11989;47.872;12.014;2023-02-28T06:21:36;15.30;;;10.50;;
23624;SDS011;11989;47.872;12.014;2023-02-28T06:24:02;19.25;;;10.85;;
23624;SDS011;11989;47.872;12.014;2023-02-28T06:26:28;18.67;;;11.13;;
23624;SDS011;11989;47.872;12.014;2023-02-28T06:28:54;21.05;;;11.00;;
23624;SDS011;11989;47.872;12.014;2023-02-28T06:31:20;18.17;;;10.73;;
23624;SDS011;11989;47.872;12.014;2023-02-28T06:33:47;17.25;;;9.65;;
23624;SDS011;11989;47.872;12.014;2023-02-28T06:36:13;18.08;;;12.13;;
23624;SDS011;11989;47.872;12.014;2023-02-28T06:38:40;17.45;;;11.43;;
23624;SDS011;11989;47.872;12.014;2023-02-28T06:41:06;19.10;;;11.85;;
23624;SDS011;11989;47.872;12.014;2023-02-28T06:43:35;21.27;;;11.45;;
23624;SDS011;11989;47.872;12.014;2023-02-28T06:46:02;18.77;;;11.02;;
23624;SDS011;11989;47.872;12.014;2023-02-28T06:48:29;18.52;;;11.82;;
23624;SDS011;11989;47.872;12.014;2023-02-28T06:51:05;19.77;;;12.10;;
23624;SDS011;11989;47.872;12.014;2023-02-28T06:53:32;19.50;;;11.57;;
23624;SDS011;11989;47.872;12.014;2023-02-28T06:55:58;18.75;;;11.75;;
23624;SDS011;11989;47.872;12.014;2023-02-28T06:58:24;21.58;;;12.30;;
23624;SDS011;11989;47.872;12.014;2023-02-28T07:00:51;18.85;;;12.32;;
23624;SDS011;11989;47.872;12.014;2023-02-28T07:03:18;24.70;;;12.38;;
23624;SDS011;11989;47.872;12.014;2023-02-28T07:05:44;23.00;;;12.85;;
23624;SDS011;11989;47.872;12.014;2023-02-28T07:08:10;20.17;;;12.68;;
23624;SDS011;11989;47.872;12.014;2023-02-28T07:10:39;20.58;;;13.27;;
23624;SDS011;11989;47.872;12.014;2023-02-28T07:13:05;19.55;;;13.52;;
23624;SDS011;11989;47.872;12.014;2023-02-28T07:15:32;23.08;;;13.90;;
23624;SDS011;11989;47.872;12.014;2023-02-28T07:17:58;21.23;;;13.40;;
23624;SDS011;11989;47.872;12.014;2023-02-28T07:20:24;18.10;;;13.38;;
23624;SDS011;11989;47.872;12.014;2023-02-28T07:22:50;21.75;;;14.65;;
23624;SDS011;11989;47.872;12.014;2023-02-28T07:25:24;21.33;;;13.57;;
23624;SDS011;11989;47.872;12.014;2023-02-28T07:27:51;20.73;;;13.15;;
23624;SDS011;11989;47.872;12.014;2023-02-28T07:30:17;22.17;;;14.10;;
23624;SDS011;11989;47.872;12.014;2023-02-28T07:32:43;23.38;;;14.10;;
23624;SDS011;11989;47.872;12.014;2023-02-28T07:35:09;22.55;;;14.48;;
23624;SDS011;11989;47.872;12.014;2023-02-28T07:37:36;17.35;;;13.18;;
23624;SDS011;11989;47.872;12.014;2023-02-28T07:40:06;22.00;;;14.77;;
23624;SDS011;11989;47.872;12.014;2023-02-28T07:42:38;20.55;;;14.18;;
23624;SDS011;11989;47.872;12.014;2023-02-28T07:45:05;22.05;;;13.20;;
23624;SDS011;11989;47.872;12.014;2023-02-28T07:47:31;23.17;;;14.10;;
23624;SDS011;11989;47.872;12.014;2023-02-28T07:49:57;23.05;;;14.07;;
23624;SDS011;11989;47.872;12.014;2023-02-28T07:52:23;20.30;;;13.20;;
23624;SDS011;11989;47.872;12.014;2023-02-28T07:54:50;19.50;;;13.57;;
23624;SDS011;11989;47.872;12.014;2023-02-28T07:57:16;21.42;;;14.38;;
23624;SDS011;11989;47.872;12.014;2023-02-28T07:59:42;21.45;;;14.02;;
23624;SDS011;11989;47.872;12.014;2023-02-28T08:02:18;21.80;;;14.75;;
23624;SDS011;11989;47.872;12.014;2023-02-28T08:04:44;21.83;;;12.95;;
23624;SDS011;11989;47.872;12.014;2023-02-28T08:07:12;20.77;;;13.68;;
23624;SDS011;11989;47.872;12.014;2023-02-28T08:09:39;20.30;;;14.05;;
23624;SDS011;11989;47.872;12.014;2023-02-28T08:12:06;22.17;;;14.13;;
23624;SDS011;11989;47.872;12.014;2023-02-28T08:14:32;20.60;;;13.00;;
23624;SDS011;11989;47.872;12.014;2023-02-28T08:16:58;19.77;;;13.93;;
23624;SDS011;11989;47.872;12.014;2023-02-28T08:19:24;20.13;;;13.57;;
23624;SDS011;11989;47.872;12.014;2023-02-28T08:21:50;19.65;;;14.05;;
23624;SDS011;11989;47.872;12.014;2023-02-28T08:24:16;18.65;;;13.55;;
23624;SDS011;11989;47.872;12.014;2023-02-28T08:26:42;18.52;;;13.18;;
23624;SDS011;11989;47.872;12.014;2023-02-28T08:29:08;19.15;;;13.98;;
23624;SDS011;11989;47.872;12.014;2023-02-28T08:31:34;21.15;;;14.93;;
23624;SDS011;11989;47.872;12.014;2023-02-28T08:34:10;20.33;;;15.02;;
23624;SDS011;11989;47.872;12.014;2023-02-28T08:36:37;24.27;;;16.02;;
23624;SDS011;11989;47.872;12.014;2023-02-28T08:39:03;21.75;;;14.73;;
23624;SDS011;11989;47.872;12.014;2023-02-28T08:41:30;24.50;;;14.85;;
23624;SDS011;11989;47.872;12.014;2023-02-28T08:43:56;20.75;;;14.43;;
23624;SDS011;11989;47.872;12.014;2023-02-28T08:46:22;23.17;;;16.23;;
23624;SDS011;11989;47.872;12.014;2023-02-28T08:48:51;20.92;;;15.27;;
23624;SDS011;11989;47.872;12.014;2023-02-28T08:51:17;23.67;;;16.33;;
23624;SDS011;11989;47.872;12.014;2023-02-28T08:53:51;23.40;;;15.57;;
23624;SDS011;11989;47.872;12.014;2023-02-28T08:56:17;22.83;;;15.80;;
23624;SDS011;11989;47.872;12.014;2023-02-28T08:58:43;25.33;;;14.88;;
23624;SDS011;11989;47.872;12.014;2023-02-28T09:01:14;24.30;;;15.93;;
23624;SDS011;11989;47.872;12.014;2023-02-28T09:03:41;22.73;;;16.08;;
23624;SDS011;11989;47.872;12.014;2023-02-28T09:06:07;28.98;;;16.90;;
23624;SDS011;11989;47.872;12.014;2023-02-28T09:08:34;25.35;;;16.75;;
23624;SDS011;11989;47.872;12.014;2023-02-28T09:11:00;22.83;;;15.73;;
23624;SDS011;11989;47.872;12.014;2023-02-28T09:13:27;23.33;;;15.85;;
23624;SDS011;11989;47.872;12.014;2023-02-28T09:15:55;23.30;;;16.45;;
23624;SDS011;11989;47.872;12.014;2023-02-28T09:18:22;24.55;;;16.63;;
23624;SDS011;11989;47.872;12.014;2023-02-28T09:20:48;25.15;;;17.05;;
23624;SDS011;11989;47.872;12.014;2023-02-28T09:23:15;25.00;;;15.25;;
23624;SDS011;11989;47.872;12.014;2023-02-28T09:25:49;22.38;;;16.42;;
23624;SDS011;11989;47.872;12.014;2023-02-28T09:28:16;24.17;;;15.82;;
23624;SDS011;11989;47.872;12.014;2023-02-28T09:30:44;20.70;;;15.30;;
23624;SDS011;11989;47.872;12.014;2023-02-28T09:33:10;24.23;;;15.77;;
23624;SDS011;11989;47.872;12.014;2023-02-28T09:35:36;24.15;;;15.82;;
23624;SDS011;11989;47.872;12.014;2023-02-28T09:38:03;22.10;;;16.67;;
23624;SDS011;11989;47.872;12.014;2023-02-28T09:40:29;24.02;;;16.15;;
23624;SDS011;11989;47.872;12.014;2023-02-28T09:42:56;25.70;;;16.88;;
23624;SDS011;11989;47.872;12.014;2023-02-28T09:45:30;24.58;;;16.58;;
23624;SDS011;11989;47.872;12.014;2023-02-28T09:48:02;25.63;;;15.88;;
23624;SDS011;11989;47.872;12.014;2023-02-28T09:50:30;22.85;;;16.27;;
23624;SDS011;11989;47.872;12.014;2023-02-28T09:52:58;23.50;;;16.02;;
23624;SDS011;11989;47.872;12.014;2023-02-28T09:57:51;24.40;;;16.65;;
23624;SDS011;11989;47.872;12.014;2023-02-28T10:00:18;23.02;;;17.10;;
23624;SDS011;11989;47.872;12.014;2023-02-28T10:05:13;25.30;;;17.05;;
23624;SDS011;11989;47.872;12.014;2023-02-28T10:07:55;22.20;;;15.80;;
23624;SDS011;11989;47.872;12.014;2023-02-28T10:10:26;25.25;;;16.48;;
23624;SDS011;11989;47.872;12.014;2023-02-28T10:12:53;20.80;;;15.45;;
23624;SDS011;11989;47.872;12.014;2023-02-28T10:15:21;21.05;;;14.40;;
23624;SDS011;11989;47.872;12.014;2023-02-28T10:17:48;23.92;;;15.93;;
23624;SDS011;11989;47.872;12.014;2023-02-28T10:20:19;23.55;;;16.13;;
23624;SDS011;11989;47.872;12.014;2023-02-28T10:23:03;21.08;;;16.38;;
23624;SDS011;11989;47.872;12.014;2023-02-28T10:25:33;23.10;;;15.68;;
23624;SDS011;11989;47.872;12.014;2023-02-28T10:28:01;21.83;;;14.82;;
23624;SDS011;11989;47.872;12.014;2023-02-28T10:30:27;22.48;;;15.77;;
23624;SDS011;11989;47.872;12.014;2023-02-28T10:32:53;22.48;;;16.23;;
23624;SDS011;11989;47.872;12.014;2023-02-28T10:35:24;23.48;;;14.32;;
23624;SDS011;11989;47.872;12.014;2023-02-28T10:37:51;23.25;;;14.75;;
23624;SDS011;11989;47.872;12.014;2023-02-28T10:43:18;21.75;;;15.18;;
23624;SDS011;11989;47.872;12.014;2023-02-28T10:45:32;23.73;;;15.23;;
23624;SDS011;11989;47.872;12.014;2023-02-28T10:50:33;20.55;;;13.93;;
23624;SDS011;11989;47.872;12.014;2023-02-28T10:53:09;19.85;;;14.15;;
23624;SDS011;11989;47.872;12.014;2023-02-28T10:55:39;23.90;;;15.48;;
23624;SDS011;11989;47.872;12.014;2023-02-28T10:58:27;19.92;;;14.68;;
23624;SDS011;11989;47.872;12.014;2023-02-28T11:00:52;20.58;;;14.55;;
23624;SDS011;11989;47.872;12.014;2023-02-28T11:05:53;19.92;;;13.70;;
23624;SDS011;11989;47.872;12.014;2023-02-28T11:08:19;22.38;;;15.40;;
23624;SDS011;11989;47.872;12.014;2023-02-28T11:10:46;20.17;;;14.45;;
23624;SDS011;11989;47.872;12.014;2023-02-28T11:13:19;20.15;;;14.23;;
23624;SDS011;11989;47.872;12.014;2023-02-28T11:15:50;22.33;;;15.48;;
23624;SDS011;11989;47.872;12.014;2023-02-28T11:20:50;21.88;;;15.05;;
23624;SDS011;11989;47.872;12.014;2023-02-28T11:23:17;23.70;;;14.95;;
23624;SDS011;11989;47.872;12.014;2023-02-28T11:25:49;20.50;;;15.25;;
23624;SDS011;11989;47.872;12.014;2023-02-28T11:31:16;27.50;;;18.13;;
23624;SDS011;11989;47.872;12.014;2023-02-28T11:33:46;22.15;;;14.57;;
23624;SDS011;11989;47.872;12.014;2023-02-28T11:38:42;20.65;;;14.02;;
23624;SDS011;11989;47.872;12.014;2023-02-28T11:51:15;21.38;;;13.73;;
23624;SDS011;11989;47.872;12.014;2023-02-28T11:54:00;26.05;;;16.38;;
23624;SDS011;11989;47.872;12.014;2023-02-28T12:01:31;23.08;;;14.68;;
23624;SDS011;11989;47.872;12.014;2023-02-28T12:04:15;19.13;;;13.82;;
23624;SDS011;11989;47.872;12.014;2023-02-28T12:26:58;18.05;;;13.30;;
23624;SDS011;11989;47.872;12.014;2023-02-28T12:32:25;18.48;;;12.88;;
23624;SDS011;11989;47.872;12.014;2023-02-28T12:34:55;21.65;;;13.32;;
23624;SDS011;11989;47.872;12.014;2023-02-28T12:37:25;18.17;;;14.00;;
23624;SDS011;11989;47.872;12.014;2023-02-28T12:40:04;18.65;;;13.80;;
23624;SDS011;11989;47.872;12.014;2023-02-28T12:42:39;16.42;;;13.10;;
23624;SDS011;11989;47.872;12.014;2023-02-28T12:47:35;18.38;;;13.77;;
23624;SDS011;11989;47.872;12.014;2023-02-28T12:52:32;20.17;;;14.15;;
23624;SDS011;11989;47.872;12.014;2023-02-28T12:55:01;20.30;;;13.75;;
23624;SDS011;11989;47.872;12.014;2023-02-28T13:00:00;20.38;;;14.52;;
23624;SDS011;11989;47.872;12.014;2023-02-28T13:10:01;18.40;;;14.38;;
23624;SDS011;11989;47.872;12.014;2023-02-28T13:12:28;18.92;;;14.45;;
23624;SDS011;11989;47.872;12.014;2023-02-28T13:15:05;21.60;;;14.88;;
23624;SDS011;11989;47.872;12.014;2023-02-28T13:17:37;18.73;;;14.98;;
23624;SDS011;11989;47.872;12.014;2023-02-28T13:20:04;20.83;;;14.57;;
23624;SDS011;11989;47.872;12.014;2023-02-28T13:25:04;21.00;;;14.93;;
23624;SDS011;11989;47.872;12.014;2023-02-28T13:27:52;22.15;;;14.75;;
23624;SDS011;11989;47.872;12.014;2023-02-28T13:35:46;19.83;;;14.43;;
23624;SDS011;11989;47.872;12.014;2023-02-28T13:38:15;19.98;;;14.90;;
23624;SDS011;11989;47.872;12.014;2023-02-28T13:40:42;24.95;;;17.95;;
23624;SDS011;11989;47.872;12.014;2023-02-28T13:43:08;26.55;;;16.38;;
23624;SDS011;11989;47.872;12.014;2023-02-28T13:45:34;20.20;;;14.90;;
23624;SDS011;11989;47.872;12.014;2023-02-28T13:48:17;19.08;;;14.80;;
23624;SDS011;11989;47.872;12.014;2023-02-28T13:50:43;25.20;;;16.58;;
23624;SDS011;11989;47.872;12.014;2023-02-28T13:58:27;28.75;;;17.42;;
23624;SDS011;11989;47.872;12.014;2023-02-28T14:01:00;21.45;;;15.30;;
23624;SDS011;11989;47.872;12.014;2023-02-28T14:06:45;27.05;;;17.63;;
23624;SDS011;11989;47.872;12.014;2023-02-28T14:11:36;22.35;;;16.30;;
23624;SDS011;11989;47.872;12.014;2023-02-28T14:14:02;28.10;;;16.42;;
23624;SDS011;11989;47.872;12.014;2023-02-28T14:19:02;29.90;;;18.35;;
23624;SDS011;11989;47.872;12.014;2023-02-28T14:21:31;29.17;;;19.05;;
23624;SDS011;11989;47.872;12.014;2023-02-28T14:34:51;21.58;;;15.85;;
23624;SDS011;11989;47.872;12.014;2023-02-28T14:37:28;20.48;;;15.32;;
23624;SDS011;11989;47.872;12.014;2023-02-28T14:39:55;22.42;;;15.95;;
23624;SDS011;11989;47.872;12.014;2023-02-28T14:42:29;24.67;;;17.73;;
23624;SDS011;11989;47.872;12.014;2023-02-28T14:44:56;19.52;;;14.70;;
23624;SDS011;11989;47.872;12.014;2023-02-28T14:47:22;22.10;;;16.17;;
23624;SDS011;11989;47.872;12.014;2023-02-28T14:49:49;21.88;;;16.02;;
23624;SDS011;11989;47.872;12.014;2023-02-28T14:52:17;19.17;;;15.10;;
23624;SDS011;11989;47.872;12.014;2023-02-28T14:54:44;22.00;;;16.20;;
23624;SDS011;11989;47.872;12.014;2023-02-28T14:57:24;19.70;;;14.93;;
23624;SDS011;11989;47.872;12.014;2023-02-28T15:00:06;21.70;;;16.27;;
23624;SDS011;11989;47.872;12.014;2023-02-28T15:02:36;19.98;;;15.15;;
23624;SDS011;11989;47.872;12.014;2023-02-28T15:07:43;22.50;;;15.65;;
23624;SDS011;11989;47.872;12.014;2023-02-28T15:10:26;21.92;;;16.40;;
23624;SDS011;11989;47.872;12.014;2023-02-28T15:12:53;24.25;;;17.00;;
23624;SDS011;11989;47.872;12.014;2023-02-28T15:15:21;22.20;;;16.23;;
23624;SDS011;11989;47.872;12.014;2023-02-28T15:17:51;23.83;;;16.95;;
23624;SDS011;11989;47.872;12.014;2023-02-28T15:22:45;21.30;;;15.70;;
23624;SDS011;11989;47.872;12.014;2023-02-28T15:25:13;23.73;;;15.55;;
23624;SDS011;11989;47.872;12.014;2023-02-28T15:27:45;19.60;;;15.07;;
23624;SDS011;11989;47.872;12.014;2023-02-28T15:30:15;23.60;;;16.27;;
23624;SDS011;11989;47.872;12.014;2023-02-28T15:32:42;23.83;;;16.38;;
23624;SDS011;11989;47.872;12.014;2023-02-28T15:35:19;21.80;;;14.98;;
23624;SDS011;11989;47.872;12.014;2023-02-28T15:37:47;24.30;;;15.90;;
23624;SDS011;11989;47.872;12.014;2023-02-28T15:40:16;21.45;;;15.10;;
23624;SDS011;11989;47.872;12.014;2023-02-28T15:42:42;24.70;;;16.33;;
23624;SDS011;11989;47.872;12.014;2023-02-28T15:48:23;21.30;;;15.45;;
23624;SDS011;11989;47.872;12.014;2023-02-28T15:50:52;24.98;;;16.65;;
23624;SDS011;11989;47.872;12.014;2023-02-28T15:53:22;20.67;;;14.93;;
23624;SDS011;11989;47.872;12.014;2023-02-28T15:55:55;24.80;;;15.70;;
23624;SDS011;11989;47.872;12.014;2023-02-28T15:58:24;21.27;;;16.52;;
23624;SDS011;11989;47.872;12.014;2023-02-28T16:01:07;26.70;;;17.25;;
23624;SDS011;11989;47.872;12.014;2023-02-28T16:03:40;26.17;;;17.75;;
23624;SDS011;11989;47.872;12.014;2023-02-28T16:08:42;21.13;;;15.38;;
23624;SDS011;11989;47.872;12.014;2023-02-28T16:11:08;23.55;;;16.90;;
23624;SDS011;11989;47.872;12.014;2023-02-28T16:13:35;23.98;;;16.85;;
23624;SDS011;11989;47.872;12.014;2023-02-28T16:16:01;22.73;;;17.00;;
23624;SDS011;11989;47.872;12.014;2023-02-28T16:18:27;25.83;;;16.35;;
23624;SDS011;11989;47.872;12.014;2023-02-28T16:20:53;23.13;;;16.27;;
23624;SDS011;11989;47.872;12.014;2023-02-28T16:23:19;26.40;;;17.15;;
23624;SDS011;11989;47.872;12.014;2023-02-28T16:25:45;25.35;;;16.17;;
23624;SDS011;11989;47.872;12.014;2023-02-28T16:28:19;26.98;;;17.10;;
23624;SDS011;11989;47.872;12.014;2023-02-28T16:30:46;29.85;;;19.73;;
23624;SDS011;11989;47.872;12.014;2023-02-28T16:33:12;28.67;;;19.65;;
23624;SDS011;11989;47.872;12.014;2023-02-28T16:35:38;29.95;;;19.20;;
23624;SDS011;11989;47.872;12.014;2023-02-28T16:38:04;25.98;;;16.70;;
23624;SDS011;11989;47.872;12.014;2023-02-28T16:40:33;24.25;;;17.80;;
23624;SDS011;11989;47.872;12.014;2023-02-28T16:42:59;25.23;;;17.63;;
23624;SDS011;11989;47.872;12.014;2023-02-28T16:45:26;143.02;;;80.00;;
23624;SDS011;11989;47.872;12.014;2023-02-28T16:47:53;155.70;;;82.70;;
23624;SDS011;11989;47.872;12.014;2023-02-28T16:50:26;89.55;;;48.95;;
23624;SDS011;11989;47.872;12.014;2023-02-28T16:52:53;95.05;;;54.42;;
23624;SDS011;11989;47.872;12.014;2023-02-28T16:55:19;84.82;;;48.97;;
23624;SDS011;11989;47.872;12.014;2023-02-28T16:57:55;75.78;;;50.83;;